»·PEaware :: N522PM L35-KSBA

N522PM :: L35-KSBA

FLIGHT INFORMATION

Flight Status: Arrived
Operator: Privately registered:
United States
More flights under this callsign
Pilot: Bruce B. (6887)
Aircraft: Unknown
(LEG2)
More flights by this aircraft type
Origin: L35 Big Bear City
United States
Destination: KSBA Santa Barbara Mun
United States
More flights between these airports :: More routes between these airports
Route:
File this flight plan on PilotEdge
Remarks:
Altitude:
(Current/Filed)
8,500ft
Speed:
(Current/Filed)
230kts
Departed: 14-Jun-22 02:46 PM
Arrived: 14-Jun-22 03:33 PM
Distance/Time
Traveled:
148nm/0:47
Distance/Time
To Go:
Arrived

Flight Plot

Page will automatically refresh every two minutes.

Flight plan parsing failed; only flown route is shown


Map Options




Map Legend


Flown Route
Filed Route
Departure Airport
Arrival Airport
Navaid (VOR, NDB)
Fix

Horizontal Profiles

Position Reports

Time Latitude Longitude Heading Altitude Ground
Speed
14-Jun-22 14:35 34.264530 -116.853966 180 6755ft 0kts
14-Jun-22 14:36 34.264530 -116.853966 180 6755ft 0kts
14-Jun-22 14:37 34.264529 -116.853966 180 6755ft 0kts
14-Jun-22 14:38 34.264528 -116.853966 180 6755ft 0kts
14-Jun-22 14:39 34.264527 -116.853966 180 6755ft 0kts
14-Jun-22 14:40 34.264527 -116.853966 180 6755ft 0kts
14-Jun-22 14:41 34.264405 -116.854096 215 6755ft 3kts
14-Jun-22 14:42 34.264319 -116.850432 91 6755ft 16kts
14-Jun-22 14:43 34.264321 -116.848189 90 6755ft 11kts
14-Jun-22 14:44 34.264197 -116.846474 165 6755ft 0kts
14-Jun-22 14:45 34.263746 -116.857813 266 6766ft 99kts
14-Jun-22 14:46 34.261116 -116.897659 260 7717ft 124kts
14-Jun-22 14:47 34.256898 -116.941426 256 8584ft 151kts
14-Jun-22 14:48 34.233332 -116.998733 218 8197ft 222kts
14-Jun-22 14:49 34.174399 -117.020709 210 8197ft 226kts
14-Jun-22 14:50 34.163977 -117.087754 273 8174ft 219kts
14-Jun-22 14:51 34.160990 -117.160611 264 7619ft 237kts
14-Jun-22 14:52 34.153126 -117.240893 274 6456ft 203kts
14-Jun-22 14:53 34.156794 -117.306729 275 6218ft 202kts
14-Jun-22 14:54 34.161028 -117.377079 275 6207ft 214kts
14-Jun-22 14:55 34.162854 -117.450093 269 6197ft 220kts
14-Jun-22 14:56 34.160317 -117.525441 269 6183ft 224kts
14-Jun-22 14:57 34.157656 -117.600392 268 6188ft 223kts
14-Jun-22 14:58 34.155348 -117.675716 269 6241ft 223kts
14-Jun-22 14:59 34.152507 -117.749284 268 6523ft 221kts
14-Jun-22 15:00 34.149522 -117.824587 268 6545ft 228kts
14-Jun-22 15:01 34.148321 -117.902050 274 6529ft 231kts
14-Jun-22 15:02 34.152226 -117.979409 279 6514ft 231kts
14-Jun-22 15:03 34.163267 -118.055861 281 6505ft 231kts
14-Jun-22 15:04 34.174233 -118.132577 281 6515ft 232kts
14-Jun-22 15:05 34.184949 -118.210148 281 6514ft 232kts
14-Jun-22 15:06 34.195506 -118.287135 281 6523ft 232kts
14-Jun-22 15:07 34.206051 -118.364367 281 6502ft 231kts
14-Jun-22 15:08 34.216347 -118.440194 281 6529ft 228kts
14-Jun-22 15:09 34.226934 -118.516748 282 6497ft 230kts
14-Jun-22 15:10 34.238965 -118.592775 282 6512ft 229kts
14-Jun-22 15:11 34.250717 -118.668158 282 6527ft 228kts
14-Jun-22 15:12 34.262150 -118.742214 282 6520ft 227kts
14-Jun-22 15:13 34.273591 -118.816820 282 6529ft 224kts
14-Jun-22 15:14 34.284915 -118.890857 282 6538ft 225kts
14-Jun-22 15:15 34.296851 -118.965653 283 6531ft 227kts
14-Jun-22 15:16 34.309480 -119.040910 283 6523ft 226kts
14-Jun-22 15:17 34.321783 -119.115039 283 6530ft 225kts
14-Jun-22 15:18 34.334129 -119.189701 283 6534ft 226kts
14-Jun-22 15:19 34.346567 -119.264660 283 6538ft 225kts
14-Jun-22 15:20 34.358659 -119.338323 284 6535ft 213kts
14-Jun-22 15:21 34.369545 -119.404934 284 5851ft 191kts
14-Jun-22 15:22 34.379347 -119.465172 283 4865ft 173kts
14-Jun-22 15:23 34.388403 -119.521019 283 3855ft 163kts
14-Jun-22 15:24 34.397917 -119.573782 283 3052ft 156kts
14-Jun-22 15:25 34.406525 -119.620705 283 2670ft 133kts
14-Jun-22 15:26 34.414288 -119.661032 285 2507ft 116kts
14-Jun-22 15:27 34.423458 -119.698047 286 2326ft 114kts
14-Jun-22 15:28 34.429421 -119.735355 269 1603ft 109kts
14-Jun-22 15:29 34.429009 -119.772514 265 1006ft 110kts
14-Jun-22 15:30 34.428410 -119.808583 265 448ft 101kts
14-Jun-22 15:31 34.427878 -119.837419 266 13ft 45kts
14-Jun-22 15:32 34.425030 -119.837794 166 13ft 15kts
14-Jun-22 15:33 34.422650 -119.836082 69 13ft 9kts
14-Jun-22 15:34 34.422452 -119.835765 168 13ft 0kts
14-Jun-22 15:35 34.422452 -119.835765 168 13ft 0kts

Navigation Log

Ident Type
Flight plan parsing failed, navigation log unavailable